Greenfield, Ohio
Current Conditions -  °F | °C
As of 12:14 AM on Friday 31 Oct 2014 (Local Time) from KRZT Reporting Station
Overcast Overcast  
Wind Chill: 34°   Ceiling: 4900
Heat Index: 34°   Visibility: 10mi
Dew Point: 32°   Wind: 3mph
Humidity: 93%   Direction: 250°WSW
Pressure: 30.05"   Gusts: NA
Location:  39.35°N, 83.38°W
Report Text: KRZT 310414Z AUTO 25003KT 10SM OVC049 01/00 A3005 RMK AO2
Loading
Personal Weather Stations






























Interactive Weather Map
Tropical Storm Tracking
New forecast layout! Learn more

10-Day Weather Forecast

Advertisements
Track Severe Weather on mobile